sensor_id;sensor_type;location;lat;lon;timestamp;P1;durP1;ratioP1;P2;durP2;ratioP2
32501;SDS011;18952;52.516;13.460;2023-06-10T00:00:43;13.38;;;5.95;;
32501;SDS011;18952;52.516;13.460;2023-06-10T00:03:10;15.38;;;6.32;;
32501;SDS011;18952;52.516;13.460;2023-06-10T00:05:37;19.30;;;6.35;;
32501;SDS011;18952;52.516;13.460;2023-06-10T00:08:04;12.35;;;6.15;;
32501;SDS011;18952;52.516;13.460;2023-06-10T00:10:32;14.77;;;5.88;;
32501;SDS011;18952;52.516;13.460;2023-06-10T00:13:03;11.73;;;5.35;;
32501;SDS011;18952;52.516;13.460;2023-06-10T00:15:31;14.88;;;6.28;;
32501;SDS011;18952;52.516;13.460;2023-06-10T00:17:58;14.82;;;6.20;;
32501;SDS011;18952;52.516;13.460;2023-06-10T00:20:25;15.38;;;5.78;;
32501;SDS011;18952;52.516;13.460;2023-06-10T00:22:52;13.88;;;6.43;;
32501;SDS011;18952;52.516;13.460;2023-06-10T00:25:19;21.10;;;6.85;;
32501;SDS011;18952;52.516;13.460;2023-06-10T00:27:45;18.40;;;6.45;;
32501;SDS011;18952;52.516;13.460;2023-06-10T00:30:13;17.02;;;6.60;;
32501;SDS011;18952;52.516;13.460;2023-06-10T00:32:40;22.27;;;6.53;;
32501;SDS011;18952;52.516;13.460;2023-06-10T00:35:06;15.57;;;6.20;;
32501;SDS011;18952;52.516;13.460;2023-06-10T00:37:34;13.55;;;5.90;;
32501;SDS011;18952;52.516;13.460;2023-06-10T00:40:04;18.73;;;6.68;;
32501;SDS011;18952;52.516;13.460;2023-06-10T00:42:31;15.13;;;6.15;;
32501;SDS011;18952;52.516;13.460;2023-06-10T00:44:58;14.80;;;5.95;;
32501;SDS011;18952;52.516;13.460;2023-06-10T00:47:25;18.67;;;6.15;;
32501;SDS011;18952;52.516;13.460;2023-06-10T00:49:53;15.93;;;6.70;;
32501;SDS011;18952;52.516;13.460;2023-06-10T00:52:20;13.13;;;5.93;;
32501;SDS011;18952;52.516;13.460;2023-06-10T00:54:50;11.88;;;5.70;;
32501;SDS011;18952;52.516;13.460;2023-06-10T00:57:17;18.45;;;6.70;;
32501;SDS011;18952;52.516;13.460;2023-06-10T00:59:48;16.35;;;6.60;;
32501;SDS011;18952;52.516;13.460;2023-06-10T01:02:15;14.50;;;6.65;;
32501;SDS011;18952;52.516;13.460;2023-06-10T01:04:43;13.68;;;6.22;;
32501;SDS011;18952;52.516;13.460;2023-06-10T01:07:12;18.80;;;6.80;;
32501;SDS011;18952;52.516;13.460;2023-06-10T01:12:58;9.98;;;6.00;;
32501;SDS011;18952;52.516;13.460;2023-06-10T01:15:12;17.15;;;5.90;;
32501;SDS011;18952;52.516;13.460;2023-06-10T01:17:55;19.95;;;6.10;;
32501;SDS011;18952;52.516;13.460;2023-06-10T01:20:23;15.32;;;6.45;;
32501;SDS011;18952;52.516;13.460;2023-06-10T01:22:50;16.92;;;7.05;;
32501;SDS011;18952;52.516;13.460;2023-06-10T01:25:17;15.00;;;6.40;;
32501;SDS011;18952;52.516;13.460;2023-06-10T01:27:44;24.50;;;6.50;;
32501;SDS011;18952;52.516;13.460;2023-06-10T01:30:17;11.63;;;5.47;;
32501;SDS011;18952;52.516;13.460;2023-06-10T01:32:50;15.30;;;6.25;;
32501;SDS011;18952;52.516;13.460;2023-06-10T01:35:18;11.90;;;6.15;;
32501;SDS011;18952;52.516;13.460;2023-06-10T01:37:50;15.57;;;6.10;;
32501;SDS011;18952;52.516;13.460;2023-06-10T01:40:20;17.48;;;6.38;;
32501;SDS011;18952;52.516;13.460;2023-06-10T01:42:49;17.70;;;6.68;;
32501;SDS011;18952;52.516;13.460;2023-06-10T01:45:16;16.63;;;6.55;;
32501;SDS011;18952;52.516;13.460;2023-06-10T01:47:43;19.55;;;6.80;;
32501;SDS011;18952;52.516;13.460;2023-06-10T01:50:10;16.30;;;6.00;;
32501;SDS011;18952;52.516;13.460;2023-06-10T01:52:37;15.95;;;6.18;;
32501;SDS011;18952;52.516;13.460;2023-06-10T01:55:04;20.60;;;6.82;;
32501;SDS011;18952;52.516;13.460;2023-06-10T01:57:31;17.08;;;6.43;;
32501;SDS011;18952;52.516;13.460;2023-06-10T01:59:58;15.57;;;6.10;;
32501;SDS011;18952;52.516;13.460;2023-06-10T02:02:24;16.02;;;6.20;;
32501;SDS011;18952;52.516;13.460;2023-06-10T02:04:51;20.15;;;7.03;;
32501;SDS011;18952;52.516;13.460;2023-06-10T02:07:18;14.43;;;6.57;;
32501;SDS011;18952;52.516;13.460;2023-06-10T02:09:45;18.63;;;6.38;;
32501;SDS011;18952;52.516;13.460;2023-06-10T02:12:11;14.98;;;6.82;;
32501;SDS011;18952;52.516;13.460;2023-06-10T02:14:41;14.35;;;6.50;;
32501;SDS011;18952;52.516;13.460;2023-06-10T02:17:08;18.55;;;6.93;;
32501;SDS011;18952;52.516;13.460;2023-06-10T02:19:35;18.70;;;7.32;;
32501;SDS011;18952;52.516;13.460;2023-06-10T02:22:02;14.98;;;7.00;;
32501;SDS011;18952;52.516;13.460;2023-06-10T02:24:28;17.08;;;6.00;;
32501;SDS011;18952;52.516;13.460;2023-06-10T02:26:55;19.50;;;7.20;;
32501;SDS011;18952;52.516;13.460;2023-06-10T02:29:22;18.38;;;6.45;;
32501;SDS011;18952;52.516;13.460;2023-06-10T02:31:49;15.85;;;6.78;;
32501;SDS011;18952;52.516;13.460;2023-06-10T02:34:16;12.32;;;6.57;;
32501;SDS011;18952;52.516;13.460;2023-06-10T02:36:42;17.40;;;6.70;;
32501;SDS011;18952;52.516;13.460;2023-06-10T02:39:09;14.68;;;6.80;;
32501;SDS011;18952;52.516;13.460;2023-06-10T02:41:36;17.73;;;6.63;;
32501;SDS011;18952;52.516;13.460;2023-06-10T02:44:03;17.17;;;7.07;;
32501;SDS011;18952;52.516;13.460;2023-06-10T02:46:30;15.88;;;6.93;;
32501;SDS011;18952;52.516;13.460;2023-06-10T02:48:56;15.57;;;7.35;;
32501;SDS011;18952;52.516;13.460;2023-06-10T02:51:23;17.80;;;7.03;;
32501;SDS011;18952;52.516;13.460;2023-06-10T02:53:50;18.13;;;6.65;;
32501;SDS011;18952;52.516;13.460;2023-06-10T02:56:17;16.13;;;7.10;;
32501;SDS011;18952;52.516;13.460;2023-06-10T02:58:43;15.93;;;7.40;;
32501;SDS011;18952;52.516;13.460;2023-06-10T03:01:11;17.10;;;7.07;;
32501;SDS011;18952;52.516;13.460;2023-06-10T03:03:38;14.35;;;6.82;;
32501;SDS011;18952;52.516;13.460;2023-06-10T03:06:11;17.88;;;7.05;;
32501;SDS011;18952;52.516;13.460;2023-06-10T03:08:38;14.13;;;6.93;;
32501;SDS011;18952;52.516;13.460;2023-06-10T03:11:05;14.98;;;7.10;;
32501;SDS011;18952;52.516;13.460;2023-06-10T03:13:32;14.13;;;6.40;;
32501;SDS011;18952;52.516;13.460;2023-06-10T03:15:59;17.20;;;6.53;;
32501;SDS011;18952;52.516;13.460;2023-06-10T03:18:26;16.88;;;7.07;;
32501;SDS011;18952;52.516;13.460;2023-06-10T03:20:54;20.50;;;7.22;;
32501;SDS011;18952;52.516;13.460;2023-06-10T03:23:21;21.05;;;7.35;;
32501;SDS011;18952;52.516;13.460;2023-06-10T03:25:48;16.85;;;6.90;;
32501;SDS011;18952;52.516;13.460;2023-06-10T03:28:14;20.05;;;7.18;;
32501;SDS011;18952;52.516;13.460;2023-06-10T03:30:41;19.83;;;7.75;;
32501;SDS011;18952;52.516;13.460;2023-06-10T03:33:08;15.40;;;7.07;;
32501;SDS011;18952;52.516;13.460;2023-06-10T03:35:35;24.77;;;7.30;;
32501;SDS011;18952;52.516;13.460;2023-06-10T03:38:01;17.13;;;7.38;;
32501;SDS011;18952;52.516;13.460;2023-06-10T03:40:28;14.02;;;7.88;;
32501;SDS011;18952;52.516;13.460;2023-06-10T03:42:55;16.70;;;7.32;;
32501;SDS011;18952;52.516;13.460;2023-06-10T03:45:21;18.30;;;7.80;;
32501;SDS011;18952;52.516;13.460;2023-06-10T03:47:48;19.30;;;7.78;;
32501;SDS011;18952;52.516;13.460;2023-06-10T03:50:15;20.45;;;8.25;;
32501;SDS011;18952;52.516;13.460;2023-06-10T03:52:42;24.90;;;8.07;;
32501;SDS011;18952;52.516;13.460;2023-06-10T03:55:09;18.25;;;8.07;;
32501;SDS011;18952;52.516;13.460;2023-06-10T03:57:36;16.63;;;7.25;;
32501;SDS011;18952;52.516;13.460;2023-06-10T04:00:03;14.02;;;7.20;;
32501;SDS011;18952;52.516;13.460;2023-06-10T04:02:30;17.13;;;8.10;;
32501;SDS011;18952;52.516;13.460;2023-06-10T04:04:57;18.80;;;7.93;;
32501;SDS011;18952;52.516;13.460;2023-06-10T04:07:24;18.38;;;8.13;;
32501;SDS011;18952;52.516;13.460;2023-06-10T04:09:50;18.63;;;8.02;;
32501;SDS011;18952;52.516;13.460;2023-06-10T04:12:17;15.18;;;7.63;;
32501;SDS011;18952;52.516;13.460;2023-06-10T04:14:44;20.52;;;7.88;;
32501;SDS011;18952;52.516;13.460;2023-06-10T04:17:10;14.38;;;7.85;;
32501;SDS011;18952;52.516;13.460;2023-06-10T04:19:37;22.80;;;7.88;;
32501;SDS011;18952;52.516;13.460;2023-06-10T04:22:04;17.70;;;7.90;;
32501;SDS011;18952;52.516;13.460;2023-06-10T04:24:31;17.63;;;7.50;;
32501;SDS011;18952;52.516;13.460;2023-06-10T04:26:58;14.95;;;8.25;;
32501;SDS011;18952;52.516;13.460;2023-06-10T04:29:24;17.70;;;7.38;;
32501;SDS011;18952;52.516;13.460;2023-06-10T04:31:51;14.60;;;7.75;;
32501;SDS011;18952;52.516;13.460;2023-06-10T04:34:18;19.08;;;7.60;;
32501;SDS011;18952;52.516;13.460;2023-06-10T04:36:45;14.40;;;7.45;;
32501;SDS011;18952;52.516;13.460;2023-06-10T04:39:11;15.52;;;7.45;;
32501;SDS011;18952;52.516;13.460;2023-06-10T04:41:40;14.02;;;8.02;;
32501;SDS011;18952;52.516;13.460;2023-06-10T04:44:07;13.35;;;7.53;;
32501;SDS011;18952;52.516;13.460;2023-06-10T04:46:33;14.50;;;8.15;;
32501;SDS011;18952;52.516;13.460;2023-06-10T04:49:00;17.08;;;7.75;;
32501;SDS011;18952;52.516;13.460;2023-06-10T04:51:27;19.48;;;8.38;;
32501;SDS011;18952;52.516;13.460;2023-06-10T04:53:54;17.75;;;7.93;;
32501;SDS011;18952;52.516;13.460;2023-06-10T04:56:21;14.25;;;6.93;;
32501;SDS011;18952;52.516;13.460;2023-06-10T04:58:47;14.13;;;7.35;;
32501;SDS011;18952;52.516;13.460;2023-06-10T05:01:14;14.63;;;7.22;;
32501;SDS011;18952;52.516;13.460;2023-06-10T05:03:41;20.73;;;8.05;;
32501;SDS011;18952;52.516;13.460;2023-06-10T05:06:08;19.73;;;7.82;;
32501;SDS011;18952;52.516;13.460;2023-06-10T05:08:35;19.75;;;7.68;;
32501;SDS011;18952;52.516;13.460;2023-06-10T05:11:01;11.95;;;7.13;;
32501;SDS011;18952;52.516;13.460;2023-06-10T05:13:28;18.00;;;7.82;;
32501;SDS011;18952;52.516;13.460;2023-06-10T05:15:55;15.73;;;7.40;;
32501;SDS011;18952;52.516;13.460;2023-06-10T05:18:22;17.08;;;7.85;;
32501;SDS011;18952;52.516;13.460;2023-06-10T05:20:48;18.23;;;7.57;;
32501;SDS011;18952;52.516;13.460;2023-06-10T05:23:15;18.42;;;7.47;;
32501;SDS011;18952;52.516;13.460;2023-06-10T05:25:42;17.33;;;7.15;;
32501;SDS011;18952;52.516;13.460;2023-06-10T05:28:09;19.30;;;7.97;;
32501;SDS011;18952;52.516;13.460;2023-06-10T05:30:39;16.55;;;7.85;;
32501;SDS011;18952;52.516;13.460;2023-06-10T05:33:06;18.90;;;7.68;;
32501;SDS011;18952;52.516;13.460;2023-06-10T05:35:33;14.02;;;7.30;;
32501;SDS011;18952;52.516;13.460;2023-06-10T05:38:00;17.75;;;7.15;;
32501;SDS011;18952;52.516;13.460;2023-06-10T05:40:29;18.42;;;7.70;;
32501;SDS011;18952;52.516;13.460;2023-06-10T05:42:56;17.98;;;7.57;;
32501;SDS011;18952;52.516;13.460;2023-06-10T05:45:22;14.65;;;6.85;;
32501;SDS011;18952;52.516;13.460;2023-06-10T05:47:49;11.25;;;6.88;;
32501;SDS011;18952;52.516;13.460;2023-06-10T05:50:16;14.73;;;6.95;;
32501;SDS011;18952;52.516;13.460;2023-06-10T05:52:43;11.35;;;6.70;;
32501;SDS011;18952;52.516;13.460;2023-06-10T05:55:09;13.90;;;7.22;;
32501;SDS011;18952;52.516;13.460;2023-06-10T05:57:37;12.50;;;6.82;;
32501;SDS011;18952;52.516;13.460;2023-06-10T06:00:04;13.10;;;6.95;;
32501;SDS011;18952;52.516;13.460;2023-06-10T06:02:31;13.00;;;7.60;;
32501;SDS011;18952;52.516;13.460;2023-06-10T06:04:58;16.58;;;7.32;;
32501;SDS011;18952;52.516;13.460;2023-06-10T06:07:25;15.60;;;7.07;;
32501;SDS011;18952;52.516;13.460;2023-06-10T06:09:52;15.05;;;7.05;;
32501;SDS011;18952;52.516;13.460;2023-06-10T06:12:19;13.00;;;6.85;;
32501;SDS011;18952;52.516;13.460;2023-06-10T06:14:46;13.65;;;7.70;;
32501;SDS011;18952;52.516;13.460;2023-06-10T06:17:12;13.18;;;7.47;;
32501;SDS011;18952;52.516;13.460;2023-06-10T06:19:39;16.08;;;7.47;;
32501;SDS011;18952;52.516;13.460;2023-06-10T06:22:06;16.42;;;7.20;;
32501;SDS011;18952;52.516;13.460;2023-06-10T06:24:33;19.35;;;7.45;;
32501;SDS011;18952;52.516;13.460;2023-06-10T06:26:59;14.88;;;7.43;;
32501;SDS011;18952;52.516;13.460;2023-06-10T06:29:29;10.90;;;6.95;;
32501;SDS011;18952;52.516;13.460;2023-06-10T06:31:56;14.57;;;7.68;;
32501;SDS011;18952;52.516;13.460;2023-06-10T06:34:23;16.85;;;7.03;;
32501;SDS011;18952;52.516;13.460;2023-06-10T06:36:50;13.73;;;7.38;;
32501;SDS011;18952;52.516;13.460;2023-06-10T06:39:17;13.60;;;7.22;;
32501;SDS011;18952;52.516;13.460;2023-06-10T06:41:44;20.40;;;7.50;;
32501;SDS011;18952;52.516;13.460;2023-06-10T06:44:11;13.38;;;8.02;;
32501;SDS011;18952;52.516;13.460;2023-06-10T06:46:37;15.75;;;8.57;;
32501;SDS011;18952;52.516;13.460;2023-06-10T06:49:04;13.80;;;7.70;;
32501;SDS011;18952;52.516;13.460;2023-06-10T06:51:32;16.55;;;8.02;;
32501;SDS011;18952;52.516;13.460;2023-06-10T06:53:59;13.38;;;6.68;;
32501;SDS011;18952;52.516;13.460;2023-06-10T06:56:26;13.50;;;7.15;;
32501;SDS011;18952;52.516;13.460;2023-06-10T06:58:52;12.68;;;6.97;;
32501;SDS011;18952;52.516;13.460;2023-06-10T07:01:23;19.02;;;7.72;;
32501;SDS011;18952;52.516;13.460;2023-06-10T07:03:50;18.60;;;7.70;;
32501;SDS011;18952;52.516;13.460;2023-06-10T07:06:17;15.20;;;7.03;;
32501;SDS011;18952;52.516;13.460;2023-06-10T07:08:43;15.93;;;7.00;;
32501;SDS011;18952;52.516;13.460;2023-06-10T07:11:11;19.83;;;6.97;;
32501;SDS011;18952;52.516;13.460;2023-06-10T07:13:37;16.20;;;7.07;;
32501;SDS011;18952;52.516;13.460;2023-06-10T07:16:04;17.15;;;7.45;;
32501;SDS011;18952;52.516;13.460;2023-06-10T07:18:31;13.90;;;7.13;;
32501;SDS011;18952;52.516;13.460;2023-06-10T07:20:58;13.55;;;7.18;;
32501;SDS011;18952;52.516;13.460;2023-06-10T07:23:25;18.92;;;7.55;;
32501;SDS011;18952;52.516;13.460;2023-06-10T07:25:52;16.63;;;7.70;;
32501;SDS011;18952;52.516;13.460;2023-06-10T07:28:18;18.08;;;7.28;;
32501;SDS011;18952;52.516;13.460;2023-06-10T07:30:45;17.83;;;7.70;;
32501;SDS011;18952;52.516;13.460;2023-06-10T07:33:12;13.52;;;7.50;;
32501;SDS011;18952;52.516;13.460;2023-06-10T07:35:39;13.93;;;7.32;;
32501;SDS011;18952;52.516;13.460;2023-06-10T07:38:06;13.27;;;7.28;;
32501;SDS011;18952;52.516;13.460;2023-06-10T07:40:33;17.63;;;7.75;;
32501;SDS011;18952;52.516;13.460;2023-06-10T07:43:00;17.38;;;8.15;;
32501;SDS011;18952;52.516;13.460;2023-06-10T07:45:27;15.85;;;7.10;;
32501;SDS011;18952;52.516;13.460;2023-06-10T07:47:54;16.20;;;8.20;;
32501;SDS011;18952;52.516;13.460;2023-06-10T07:50:21;15.00;;;7.55;;
32501;SDS011;18952;52.516;13.460;2023-06-10T07:52:48;15.52;;;7.93;;
32501;SDS011;18952;52.516;13.460;2023-06-10T07:55:15;15.40;;;8.07;;
32501;SDS011;18952;52.516;13.460;2023-06-10T07:57:41;11.65;;;7.90;;
32501;SDS011;18952;52.516;13.460;2023-06-10T08:00:08;14.30;;;7.50;;
32501;SDS011;18952;52.516;13.460;2023-06-10T08:02:35;20.80;;;12.23;;
32501;SDS011;18952;52.516;13.460;2023-06-10T08:05:02;23.55;;;14.32;;
32501;SDS011;18952;52.516;13.460;2023-06-10T08:07:30;22.48;;;8.77;;
32501;SDS011;18952;52.516;13.460;2023-06-10T08:09:56;14.45;;;8.23;;
32501;SDS011;18952;52.516;13.460;2023-06-10T08:12:25;13.10;;;7.68;;
32501;SDS011;18952;52.516;13.460;2023-06-10T08:14:52;16.75;;;7.93;;
32501;SDS011;18952;52.516;13.460;2023-06-10T08:17:19;19.77;;;7.55;;
32501;SDS011;18952;52.516;13.460;2023-06-10T08:19:46;15.75;;;7.85;;
32501;SDS011;18952;52.516;13.460;2023-06-10T08:22:13;14.18;;;7.57;;
32501;SDS011;18952;52.516;13.460;2023-06-10T08:24:39;23.20;;;8.05;;
32501;SDS011;18952;52.516;13.460;2023-06-10T08:27:06;14.32;;;6.93;;
32501;SDS011;18952;52.516;13.460;2023-06-10T08:29:33;12.05;;;7.47;;
32501;SDS011;18952;52.516;13.460;2023-06-10T08:32:00;12.75;;;8.00;;
32501;SDS011;18952;52.516;13.460;2023-06-10T08:34:27;14.18;;;8.35;;
32501;SDS011;18952;52.516;13.460;2023-06-10T08:36:54;23.85;;;7.80;;
32501;SDS011;18952;52.516;13.460;2023-06-10T08:39:21;15.73;;;8.20;;
32501;SDS011;18952;52.516;13.460;2023-06-10T08:44:41;16.10;;;8.25;;
32501;SDS011;18952;52.516;13.460;2023-06-10T08:47:18;15.63;;;8.30;;
32501;SDS011;18952;52.516;13.460;2023-06-10T08:49:47;12.52;;;7.55;;
32501;SDS011;18952;52.516;13.460;2023-06-10T08:52:17;13.18;;;8.05;;
32501;SDS011;18952;52.516;13.460;2023-06-10T08:57:23;15.68;;;7.15;;
32501;SDS011;18952;52.516;13.460;2023-06-10T08:59:51;13.95;;;7.32;;
32501;SDS011;18952;52.516;13.460;2023-06-10T09:02:23;17.70;;;8.30;;
32501;SDS011;18952;52.516;13.460;2023-06-10T09:04:50;15.07;;;7.53;;
32501;SDS011;18952;52.516;13.460;2023-06-10T09:07:18;14.18;;;7.28;;
32501;SDS011;18952;52.516;13.460;2023-06-10T09:09:46;15.07;;;7.43;;
32501;SDS011;18952;52.516;13.460;2023-06-10T09:12:13;15.80;;;7.90;;
32501;SDS011;18952;52.516;13.460;2023-06-10T09:14:41;16.88;;;7.20;;
32501;SDS011;18952;52.516;13.460;2023-06-10T09:17:08;16.15;;;7.40;;
32501;SDS011;18952;52.516;13.460;2023-06-10T09:19:35;13.07;;;6.80;;
32501;SDS011;18952;52.516;13.460;2023-06-10T09:22:04;12.60;;;6.70;;
32501;SDS011;18952;52.516;13.460;2023-06-10T09:24:31;12.32;;;6.15;;
32501;SDS011;18952;52.516;13.460;2023-06-10T09:27:05;12.07;;;6.47;;
32501;SDS011;18952;52.516;13.460;2023-06-10T09:29:52;11.05;;;6.55;;
32501;SDS011;18952;52.516;13.460;2023-06-10T09:32:20;21.75;;;7.75;;
32501;SDS011;18952;52.516;13.460;2023-06-10T09:34:48;16.10;;;7.13;;
32501;SDS011;18952;52.516;13.460;2023-06-10T09:37:19;17.38;;;8.75;;
32501;SDS011;18952;52.516;13.460;2023-06-10T09:40:03;15.55;;;6.43;;
32501;SDS011;18952;52.516;13.460;2023-06-10T09:42:32;22.60;;;8.25;;
32501;SDS011;18952;52.516;13.460;2023-06-10T09:45:00;16.23;;;7.50;;
32501;SDS011;18952;52.516;13.460;2023-06-10T09:47:27;17.33;;;7.00;;
32501;SDS011;18952;52.516;13.460;2023-06-10T09:49:53;17.42;;;7.90;;
32501;SDS011;18952;52.516;13.460;2023-06-10T09:52:21;19.05;;;7.47;;
32501;SDS011;18952;52.516;13.460;2023-06-10T09:54:48;18.15;;;8.38;;
32501;SDS011;18952;52.516;13.460;2023-06-10T09:57:16;15.38;;;7.35;;
32501;SDS011;18952;52.516;13.460;2023-06-10T09:59:44;16.30;;;8.15;;
32501;SDS011;18952;52.516;13.460;2023-06-10T10:02:15;18.63;;;8.38;;
32501;SDS011;18952;52.516;13.460;2023-06-10T10:04:43;11.65;;;7.00;;
32501;SDS011;18952;52.516;13.460;2023-06-10T10:07:10;24.42;;;9.35;;
32501;SDS011;18952;52.516;13.460;2023-06-10T10:09:38;14.95;;;8.27;;
32501;SDS011;18952;52.516;13.460;2023-06-10T10:12:13;16.63;;;8.52;;
32501;SDS011;18952;52.516;13.460;2023-06-10T10:14:45;17.00;;;7.75;;
32501;SDS011;18952;52.516;13.460;2023-06-10T10:17:14;15.82;;;7.85;;
32501;SDS011;18952;52.516;13.460;2023-06-10T10:19:53;13.35;;;6.93;;
32501;SDS011;18952;52.516;13.460;2023-06-10T10:22:29;12.05;;;6.40;;
32501;SDS011;18952;52.516;13.460;2023-06-10T10:25:10;10.10;;;5.82;;
32501;SDS011;18952;52.516;13.460;2023-06-10T10:27:43;16.85;;;7.40;;
32501;SDS011;18952;52.516;13.460;2023-06-10T10:30:11;12.30;;;5.07;;
32501;SDS011;18952;52.516;13.460;2023-06-10T10:32:45;7.85;;;6.07;;
32501;SDS011;18952;52.516;13.460;2023-06-10T10:35:35;9.10;;;5.03;;
32501;SDS011;18952;52.516;13.460;2023-06-10T10:38:03;8.38;;;5.75;;
32501;SDS011;18952;52.516;13.460;2023-06-10T10:40:32;12.50;;;5.20;;
32501;SDS011;18952;52.516;13.460;2023-06-10T10:43:00;9.38;;;4.45;;
32501;SDS011;18952;52.516;13.460;2023-06-10T10:45:33;7.32;;;4.78;;
32501;SDS011;18952;52.516;13.460;2023-06-10T10:48:07;11.27;;;4.40;;
32501;SDS011;18952;52.516;13.460;2023-06-10T10:50:35;7.05;;;3.88;;
32501;SDS011;18952;52.516;13.460;2023-06-10T10:53:05;6.90;;;3.92;;
32501;SDS011;18952;52.516;13.460;2023-06-10T10:55:35;5.03;;;4.15;;
32501;SDS011;18952;52.516;13.460;2023-06-10T10:59:05;7.43;;;4.07;;
32501;SDS011;18952;52.516;13.460;2023-06-10T11:01:42;7.30;;;4.22;;
32501;SDS011;18952;52.516;13.460;2023-06-10T11:04:09;5.60;;;4.30;;
32501;SDS011;18952;52.516;13.460;2023-06-10T11:06:37;7.22;;;3.75;;
32501;SDS011;18952;52.516;13.460;2023-06-10T11:09:25;5.45;;;3.95;;
32501;SDS011;18952;52.516;13.460;2023-06-10T11:11:53;7.43;;;4.55;;
32501;SDS011;18952;52.516;13.460;2023-06-10T11:14:29;6.22;;;4.60;;
32501;SDS011;18952;52.516;13.460;2023-06-10T11:17:00;7.90;;;4.32;;
32501;SDS011;18952;52.516;13.460;2023-06-10T11:19:36;9.43;;;4.55;;
32501;SDS011;18952;52.516;13.460;2023-06-10T11:22:07;4.72;;;3.85;;
32501;SDS011;18952;52.516;13.460;2023-06-10T11:24:34;10.23;;;4.53;;
32501;SDS011;18952;52.516;13.460;2023-06-10T11:27:14;6.85;;;4.55;;
32501;SDS011;18952;52.516;13.460;2023-06-10T11:32:45;6.47;;;4.20;;
32501;SDS011;18952;52.516;13.460;2023-06-10T11:35:18;8.55;;;4.72;;
32501;SDS011;18952;52.516;13.460;2023-06-10T11:37:46;8.98;;;5.38;;
32501;SDS011;18952;52.516;13.460;2023-06-10T11:40:13;6.25;;;4.10;;
32501;SDS011;18952;52.516;13.460;2023-06-10T11:42:43;12.65;;;4.80;;
32501;SDS011;18952;52.516;13.460;2023-06-10T11:45:14;12.30;;;4.70;;
32501;SDS011;18952;52.516;13.460;2023-06-10T11:47:54;5.90;;;5.18;;
32501;SDS011;18952;52.516;13.460;2023-06-10T11:50:31;6.38;;;4.55;;
32501;SDS011;18952;52.516;13.460;2023-06-10T11:52:59;5.90;;;4.57;;
32501;SDS011;18952;52.516;13.460;2023-06-10T11:55:42;6.50;;;4.53;;
32501;SDS011;18952;52.516;13.460;2023-06-10T11:58:13;12.68;;;5.40;;
32501;SDS011;18952;52.516;13.460;2023-06-10T12:00:44;9.10;;;7.05;;
32501;SDS011;18952;52.516;13.460;2023-06-10T12:03:14;7.88;;;4.88;;
32501;SDS011;18952;52.516;13.460;2023-06-10T12:10:55;12.23;;;4.50;;
32501;SDS011;18952;52.516;13.460;2023-06-10T12:13:23;8.38;;;4.45;;
32501;SDS011;18952;52.516;13.460;2023-06-10T12:15:53;5.18;;;4.32;;
32501;SDS011;18952;52.516;13.460;2023-06-10T12:18:23;5.93;;;4.28;;
32501;SDS011;18952;52.516;13.460;2023-06-10T12:20:50;7.05;;;4.93;;
32501;SDS011;18952;52.516;13.460;2023-06-10T12:23:18;6.57;;;4.75;;
32501;SDS011;18952;52.516;13.460;2023-06-10T12:25:51;7.20;;;4.70;;
32501;SDS011;18952;52.516;13.460;2023-06-10T12:28:21;12.52;;;5.05;;
32501;SDS011;18952;52.516;13.460;2023-06-10T12:30:49;8.93;;;4.68;;
32501;SDS011;18952;52.516;13.460;2023-06-10T12:33:16;15.00;;;5.00;;
32501;SDS011;18952;52.516;13.460;2023-06-10T12:35:59;9.07;;;4.80;;
32501;SDS011;18952;52.516;13.460;2023-06-10T12:38:26;12.85;;;5.60;;
32501;SDS011;18952;52.516;13.460;2023-06-10T12:40:53;11.35;;;5.80;;
32501;SDS011;18952;52.516;13.460;2023-06-10T12:43:20;9.88;;;6.55;;
32501;SDS011;18952;52.516;13.460;2023-06-10T12:45:50;6.60;;;5.70;;
32501;SDS011;18952;52.516;13.460;2023-06-10T12:50:50;7.57;;;5.93;;
32501;SDS011;18952;52.516;13.460;2023-06-10T12:53:21;10.77;;;6.15;;
32501;SDS011;18952;52.516;13.460;2023-06-10T12:55:49;11.52;;;6.80;;
32501;SDS011;18952;52.516;13.460;2023-06-10T12:58:16;8.38;;;5.28;;
32501;SDS011;18952;52.516;13.460;2023-06-10T13:00:45;12.48;;;5.57;;
32501;SDS011;18952;52.516;13.460;2023-06-10T13:03:12;10.25;;;5.65;;
32501;SDS011;18952;52.516;13.460;2023-06-10T13:05:39;11.50;;;6.00;;
32501;SDS011;18952;52.516;13.460;2023-06-10T13:08:06;9.15;;;5.90;;
32501;SDS011;18952;52.516;13.460;2023-06-10T13:10:33;8.00;;;5.78;;
32501;SDS011;18952;52.516;13.460;2023-06-10T13:13:00;9.30;;;5.63;;
32501;SDS011;18952;52.516;13.460;2023-06-10T13:15:28;16.02;;;6.10;;
32501;SDS011;18952;52.516;13.460;2023-06-10T13:17:55;12.45;;;5.72;;
32501;SDS011;18952;52.516;13.460;2023-06-10T13:20:22;9.35;;;6.05;;
32501;SDS011;18952;52.516;13.460;2023-06-10T13:23:07;14.65;;;5.63;;
32501;SDS011;18952;52.516;13.460;2023-06-10T13:25:34;10.38;;;6.20;;
32501;SDS011;18952;52.516;13.460;2023-06-10T13:28:01;7.50;;;5.38;;
32501;SDS011;18952;52.516;13.460;2023-06-10T13:30:28;10.82;;;5.60;;
32501;SDS011;18952;52.516;13.460;2023-06-10T13:32:55;9.63;;;5.43;;
32501;SDS011;18952;52.516;13.460;2023-06-10T13:35:21;10.15;;;5.88;;
32501;SDS011;18952;52.516;13.460;2023-06-10T13:37:48;10.93;;;5.47;;
32501;SDS011;18952;52.516;13.460;2023-06-10T13:40:15;11.35;;;5.35;;
32501;SDS011;18952;52.516;13.460;2023-06-10T13:42:44;10.32;;;6.15;;
32501;SDS011;18952;52.516;13.460;2023-06-10T13:45:10;11.82;;;6.15;;
32501;SDS011;18952;52.516;13.460;2023-06-10T13:47:38;8.60;;;5.65;;
32501;SDS011;18952;52.516;13.460;2023-06-10T13:50:05;8.50;;;5.63;;
32501;SDS011;18952;52.516;13.460;2023-06-10T13:52:33;10.13;;;5.47;;
32501;SDS011;18952;52.516;13.460;2023-06-10T13:55:00;11.95;;;5.70;;
32501;SDS011;18952;52.516;13.460;2023-06-10T13:57:27;11.23;;;6.07;;
32501;SDS011;18952;52.516;13.460;2023-06-10T13:59:54;11.45;;;5.60;;
32501;SDS011;18952;52.516;13.460;2023-06-10T14:02:20;13.73;;;5.18;;
32501;SDS011;18952;52.516;13.460;2023-06-10T14:04:47;13.32;;;5.72;;
32501;SDS011;18952;52.516;13.460;2023-06-10T14:07:14;8.57;;;5.32;;
32501;SDS011;18952;52.516;13.460;2023-06-10T14:10:21;7.03;;;5.20;;
32501;SDS011;18952;52.516;13.460;2023-06-10T14:13:23;8.63;;;5.20;;
32501;SDS011;18952;52.516;13.460;2023-06-10T14:15:50;16.08;;;4.60;;
32501;SDS011;18952;52.516;13.460;2023-06-10T14:18:16;11.32;;;5.25;;
32501;SDS011;18952;52.516;13.460;2023-06-10T14:20:43;9.98;;;5.72;;
32501;SDS011;18952;52.516;13.460;2023-06-10T14:23:10;12.95;;;5.85;;
32501;SDS011;18952;52.516;13.460;2023-06-10T14:25:37;7.78;;;5.07;;
32501;SDS011;18952;52.516;13.460;2023-06-10T14:28:06;9.88;;;4.68;;
32501;SDS011;18952;52.516;13.460;2023-06-10T14:30:33;13.50;;;5.18;;
32501;SDS011;18952;52.516;13.460;2023-06-10T14:32:59;12.80;;;5.60;;
32501;SDS011;18952;52.516;13.460;2023-06-10T14:35:26;8.45;;;4.72;;
32501;SDS011;18952;52.516;13.460;2023-06-10T14:37:59;7.85;;;4.82;;
32501;SDS011;18952;52.516;13.460;2023-06-10T14:40:27;9.35;;;4.60;;
32501;SDS011;18952;52.516;13.460;2023-06-10T14:42:54;6.40;;;4.43;;
32501;SDS011;18952;52.516;13.460;2023-06-10T14:45:21;9.00;;;4.57;;
32501;SDS011;18952;52.516;13.460;2023-06-10T14:47:50;8.80;;;4.40;;
32501;SDS011;18952;52.516;13.460;2023-06-10T14:50:28;5.88;;;4.05;;